createdAt,value
2023-03-10T00:00:35.922Z,996.88
2023-03-10T00:01:36.072Z,996.87
2023-03-10T00:02:36.283Z,996.88
2023-03-10T00:03:36.440Z,996.88
2023-03-10T00:04:36.661Z,996.81
2023-03-10T00:05:36.847Z,996.78
2023-03-10T00:06:36.962Z,996.75
2023-03-10T00:07:37.163Z,996.70
2023-03-10T00:08:37.327Z,996.69
2023-03-10T00:09:37.524Z,996.66
2023-03-10T00:10:37.692Z,996.71
2023-03-10T00:11:37.851Z,996.71
2023-03-10T00:12:38.052Z,996.71
2023-03-10T00:13:38.224Z,996.70
2023-03-10T00:14:38.373Z,996.67
2023-03-10T00:15:38.538Z,996.63
2023-03-10T00:16:38.702Z,996.62
2023-03-10T00:17:38.868Z,996.54
2023-03-10T00:18:39.021Z,996.49
2023-03-10T00:19:39.175Z,996.56
2023-03-10T00:20:39.391Z,996.51
2023-03-10T00:21:39.529Z,996.54
2023-03-10T00:22:39.741Z,996.48
2023-03-10T00:23:39.890Z,996.48
2023-03-10T00:24:40.085Z,996.45
2023-03-10T00:25:40.250Z,996.40
2023-03-10T00:26:40.408Z,996.38
2023-03-10T00:27:40.609Z,996.37
2023-03-10T00:28:40.778Z,996.30
2023-03-10T00:29:40.920Z,996.32
2023-03-10T00:30:41.115Z,996.29
2023-03-10T00:31:41.271Z,996.32
2023-03-10T00:32:41.530Z,996.27
2023-03-10T00:33:41.632Z,996.28
2023-03-10T00:34:41.822Z,996.21
2023-03-10T00:35:41.990Z,996.19
2023-03-10T00:36:42.173Z,996.20
2023-03-10T00:37:42.332Z,996.18
2023-03-10T00:38:42.513Z,996.17
2023-03-10T00:39:42.662Z,996.17
2023-03-10T00:40:42.834Z,996.16
2023-03-10T00:41:42.995Z,996.13
2023-03-10T00:42:43.153Z,996.10
2023-03-10T00:43:43.333Z,996.08
2023-03-10T00:44:43.492Z,996.05
2023-03-10T00:45:43.675Z,996.02
2023-03-10T00:46:43.895Z,995.98
2023-03-10T00:47:44.038Z,995.94
2023-03-10T00:48:44.211Z,995.94
2023-03-10T00:49:44.361Z,995.91
2023-03-10T00:50:44.582Z,995.91
2023-03-10T00:51:44.706Z,995.88
2023-03-10T00:52:44.905Z,995.86
2023-03-10T00:53:45.080Z,995.81
2023-03-10T00:54:45.222Z,995.80
2023-03-10T00:55:45.394Z,995.79
2023-03-10T00:56:45.579Z,995.75
2023-03-10T00:57:45.751Z,995.71
2023-03-10T00:58:45.912Z,995.69
2023-03-10T00:59:50.470Z,995.67
2023-03-10T01:00:46.280Z,995.61
2023-03-10T01:01:46.538Z,995.52
2023-03-10T01:02:46.645Z,995.50
2023-03-10T01:03:46.795Z,995.47
2023-03-10T01:04:47.027Z,995.43
2023-03-10T01:05:47.176Z,995.39
2023-03-10T01:06:47.370Z,995.38
2023-03-10T01:07:47.571Z,995.31
2023-03-10T01:08:47.691Z,995.31
2023-03-10T01:09:47.883Z,995.30
2023-03-10T01:10:48.058Z,995.31
2023-03-10T01:11:48.200Z,995.22
2023-03-10T01:12:48.420Z,995.24
2023-03-10T01:13:48.576Z,995.23
2023-03-10T01:14:48.740Z,995.22
2023-03-10T01:15:48.951Z,995.20
2023-03-10T01:16:49.089Z,995.20
2023-03-10T01:17:49.259Z,995.16
2023-03-10T01:18:49.429Z,995.17
2023-03-10T01:19:49.571Z,995.11
2023-03-10T01:20:49.768Z,995.09
2023-03-10T01:21:49.920Z,995.01
2023-03-10T01:22:50.157Z,995.02
2023-03-10T01:23:50.280Z,994.98
2023-03-10T01:24:50.467Z,994.99
2023-03-10T01:25:50.645Z,994.95
2023-03-10T01:26:50.790Z,994.97
2023-03-10T01:27:50.990Z,994.96
2023-03-10T01:28:51.170Z,994.93
2023-03-10T01:29:51.301Z,994.93
2023-03-10T01:30:51.487Z,994.89
2023-03-10T01:31:51.682Z,994.83
2023-03-10T01:32:52.045Z,994.85
2023-03-10T01:33:52.070Z,994.82
2023-03-10T01:34:52.224Z,994.81
2023-03-10T01:35:52.427Z,994.76
2023-03-10T01:36:52.568Z,994.73
2023-03-10T01:37:52.765Z,994.68
2023-03-10T01:38:52.927Z,994.66
2023-03-10T01:39:53.085Z,994.69
2023-03-10T01:40:53.285Z,994.64
2023-03-10T01:41:53.431Z,994.57
2023-03-10T01:42:53.613Z,994.56
2023-03-10T01:43:53.781Z,994.53
2023-03-10T01:44:53.940Z,994.56
2023-03-10T01:45:54.105Z,994.49
2023-03-10T01:46:54.356Z,994.53
2023-03-10T01:47:54.482Z,994.42
2023-03-10T01:48:54.643Z,994.45
2023-03-10T01:49:54.828Z,994.47
2023-03-10T01:50:55.023Z,994.47
2023-03-10T01:51:55.204Z,994.44
2023-03-10T01:52:55.412Z,994.41
2023-03-10T01:53:55.603Z,994.32
2023-03-10T01:54:55.789Z,994.34
2023-03-10T01:55:55.910Z,994.29
2023-03-10T01:56:56.102Z,994.27
2023-03-10T01:57:56.281Z,994.24
2023-03-10T01:58:56.489Z,994.20
2023-03-10T01:59:56.648Z,994.10
2023-03-10T02:00:56.903Z,994.08
2023-03-10T02:01:57.094Z,994.02
2023-03-10T02:02:57.176Z,994.01
2023-03-10T02:03:57.350Z,994.00
2023-03-10T02:04:57.512Z,994.04
2023-03-10T02:05:57.689Z,994.01
2023-03-10T02:06:57.888Z,994.02
2023-03-10T02:07:58.024Z,994.08
2023-03-10T02:08:58.243Z,994.08
2023-03-10T02:09:58.386Z,994.04
2023-03-10T02:10:58.574Z,993.95
2023-03-10T02:11:58.726Z,993.83
2023-03-10T02:12:58.919Z,993.76
2023-03-10T02:13:59.108Z,993.72
2023-03-10T02:14:59.273Z,993.70
2023-03-10T02:15:59.485Z,993.69
2023-03-10T02:16:59.610Z,993.68
2023-03-10T02:17:59.821Z,993.62
2023-03-10T02:18:59.971Z,993.59
2023-03-10T02:20:00.169Z,993.63
2023-03-10T02:21:00.310Z,993.58
2023-03-10T02:22:00.499Z,993.55
2023-03-10T02:23:00.711Z,993.53
2023-03-10T02:24:01.836Z,993.52
2023-03-10T02:25:01.051Z,993.57
2023-03-10T02:26:01.208Z,993.52
2023-03-10T02:27:01.364Z,993.51
2023-03-10T02:28:01.554Z,993.44
2023-03-10T02:29:01.748Z,993.38
2023-03-10T02:30:01.940Z,993.33
2023-03-10T02:31:02.098Z,993.31
2023-03-10T02:32:02.310Z,993.34
2023-03-10T02:33:02.422Z,993.38
2023-03-10T02:34:02.621Z,993.29
2023-03-10T02:35:02.778Z,993.25
2023-03-10T02:36:03.017Z,993.19
2023-03-10T02:37:03.101Z,993.14
2023-03-10T02:38:03.280Z,993.13
2023-03-10T02:39:03.478Z,993.09
2023-03-10T02:40:03.635Z,993.09
2023-03-10T02:41:03.839Z,993.05
2023-03-10T02:42:04.016Z,992.99
2023-03-10T02:43:04.170Z,993.01
2023-03-10T02:44:04.359Z,993.00
2023-03-10T02:45:04.499Z,993.04
2023-03-10T02:46:04.699Z,993.02
2023-03-10T02:47:04.831Z,993.05
2023-03-10T02:48:05.006Z,993.01
2023-03-10T02:49:05.217Z,993.00
2023-03-10T02:50:05.344Z,993.03
2023-03-10T02:51:05.515Z,993.00
2023-03-10T02:52:05.698Z,993.00
2023-03-10T02:53:05.877Z,992.96
2023-03-10T02:54:06.055Z,992.92
2023-03-10T02:55:06.233Z,992.90
2023-03-10T02:56:06.426Z,992.83
2023-03-10T02:57:06.620Z,992.80
2023-03-10T02:58:06.788Z,992.75
2023-03-10T02:59:06.974Z,992.77
2023-03-10T03:00:07.132Z,992.77
2023-03-10T03:01:07.456Z,992.68
2023-03-10T03:02:07.472Z,992.71
2023-03-10T03:03:07.648Z,992.78
2023-03-10T03:04:07.901Z,992.72
2023-03-10T03:05:07.992Z,992.66
2023-03-10T03:06:08.177Z,992.55
2023-03-10T03:07:08.344Z,992.55
2023-03-10T03:08:08.531Z,992.52
2023-03-10T03:09:08.723Z,992.55
2023-03-10T03:10:08.861Z,992.44
2023-03-10T03:11:09.040Z,992.42
2023-03-10T03:12:09.213Z,992.38
2023-03-10T03:13:09.384Z,992.30
2023-03-10T03:14:09.580Z,992.28
2023-03-10T03:15:09.740Z,992.19
2023-03-10T03:16:10.014Z,992.18
2023-03-10T03:17:10.092Z,992.13
2023-03-10T03:18:10.272Z,992.07
2023-03-10T03:19:10.462Z,992.14
2023-03-10T03:20:10.643Z,992.14
2023-03-10T03:21:10.815Z,992.14
2023-03-10T03:22:10.989Z,992.23
2023-03-10T03:23:11.158Z,992.17
2023-03-10T03:24:11.354Z,992.16
2023-03-10T03:25:11.492Z,992.16
2023-03-10T03:26:11.679Z,992.14
2023-03-10T03:27:11.855Z,992.18
2023-03-10T03:28:12.036Z,992.20
2023-03-10T03:29:12.217Z,992.16
2023-03-10T03:30:12.410Z,992.13
2023-03-10T03:31:12.566Z,992.09
2023-03-10T03:32:12.831Z,992.03
2023-03-10T03:33:12.907Z,992.00
2023-03-10T03:34:13.098Z,992.03
2023-03-10T03:35:13.285Z,991.96
2023-03-10T03:36:13.456Z,991.96
2023-03-10T03:37:13.614Z,991.91
2023-03-10T03:38:13.796Z,991.89
2023-03-10T03:39:13.994Z,991.94
2023-03-10T03:40:14.128Z,991.98
2023-03-10T03:41:14.361Z,991.98
2023-03-10T03:42:14.475Z,991.90
2023-03-10T03:43:14.667Z,991.86
2023-03-10T03:44:14.823Z,991.85
2023-03-10T03:45:14.967Z,991.90
2023-03-10T03:46:15.234Z,991.86
2023-03-10T03:47:15.326Z,991.84
2023-03-10T03:48:15.506Z,991.86
2023-03-10T03:49:15.694Z,991.82
2023-03-10T03:50:15.882Z,991.75
2023-03-10T03:51:16.044Z,991.81
2023-03-10T03:52:16.253Z,991.79
2023-03-10T03:53:16.377Z,991.78
2023-03-10T03:54:16.574Z,991.79
2023-03-10T03:55:16.728Z,991.75
2023-03-10T03:56:16.894Z,991.71
2023-03-10T03:57:17.066Z,991.68
2023-03-10T03:58:17.256Z,991.64
2023-03-10T03:59:17.434Z,991.67
2023-03-10T04:00:17.626Z,991.69
2023-03-10T04:01:17.800Z,991.63
2023-03-10T04:02:18.008Z,991.59
2023-03-10T04:03:18.161Z,991.59
2023-03-10T04:04:18.322Z,991.55
2023-03-10T04:05:18.468Z,991.62
2023-03-10T04:06:18.652Z,991.54
2023-03-10T04:07:18.792Z,991.54
2023-03-10T04:08:18.963Z,991.52
2023-03-10T04:09:19.124Z,991.49
2023-03-10T04:10:19.317Z,991.48
2023-03-10T04:11:19.509Z,991.50
2023-03-10T04:12:19.673Z,991.54
2023-03-10T04:13:19.847Z,991.53
2023-03-10T04:14:20.033Z,991.55
2023-03-10T04:15:20.212Z,991.53
2023-03-10T04:16:20.454Z,991.49
2023-03-10T04:17:20.552Z,991.52
2023-03-10T04:18:20.732Z,991.50
2023-03-10T04:19:20.924Z,991.45
2023-03-10T04:20:21.101Z,991.42
2023-03-10T04:21:21.281Z,991.41
2023-03-10T04:22:21.461Z,991.44
2023-03-10T04:23:21.623Z,991.47
2023-03-10T04:24:21.810Z,991.44
2023-03-10T04:25:22.032Z,991.41
2023-03-10T04:26:22.198Z,991.30
2023-03-10T04:27:22.361Z,991.34
2023-03-10T04:28:22.544Z,991.39
2023-03-10T04:29:22.723Z,991.34
2023-03-10T04:30:22.903Z,991.33
2023-03-10T04:31:23.129Z,991.32
2023-03-10T04:32:23.265Z,991.32
2023-03-10T04:33:23.415Z,991.27
2023-03-10T04:34:23.604Z,991.23
2023-03-10T04:35:23.755Z,991.22
2023-03-10T04:36:23.919Z,991.13
2023-03-10T04:37:24.089Z,991.14
2023-03-10T04:38:24.283Z,991.14
2023-03-10T04:39:24.462Z,991.06
2023-03-10T04:40:24.630Z,991.04
2023-03-10T04:41:24.814Z,991.02
2023-03-10T04:42:24.998Z,991.03
2023-03-10T04:43:25.158Z,991.02
2023-03-10T04:44:30.820Z,991.01
2023-03-10T04:45:26.533Z,991.00
2023-03-10T04:46:25.741Z,990.98
2023-03-10T04:47:25.869Z,990.98
2023-03-10T04:48:26.037Z,990.94
2023-03-10T04:49:26.251Z,990.92
2023-03-10T04:50:26.403Z,990.88
2023-03-10T04:51:26.571Z,990.87
2023-03-10T04:52:26.758Z,990.86
2023-03-10T04:53:26.921Z,990.84
2023-03-10T04:54:27.109Z,990.85
2023-03-10T04:55:27.295Z,990.86
2023-03-10T04:56:27.462Z,990.89
2023-03-10T04:57:27.640Z,990.85
2023-03-10T04:58:27.843Z,990.86
2023-03-10T04:59:27.995Z,990.87
2023-03-10T05:00:28.265Z,990.82
2023-03-10T05:01:28.420Z,990.77
2023-03-10T05:02:28.529Z,990.70
2023-03-10T05:03:28.699Z,990.64
2023-03-10T05:04:28.940Z,990.61
2023-03-10T05:05:29.051Z,990.65
2023-03-10T05:06:29.313Z,990.66
2023-03-10T05:07:29.410Z,990.66
2023-03-10T05:08:29.590Z,990.66
2023-03-10T05:09:29.788Z,990.65
2023-03-10T05:10:29.938Z,990.68
2023-03-10T05:11:30.114Z,990.64
2023-03-10T05:12:30.294Z,990.61
2023-03-10T05:13:31.870Z,990.59
2023-03-10T05:14:30.655Z,990.63
2023-03-10T05:15:30.825Z,990.54
2023-03-10T05:16:31.095Z,990.53
2023-03-10T05:17:31.178Z,990.51
2023-03-10T05:18:31.363Z,990.45
2023-03-10T05:19:31.554Z,990.48
2023-03-10T05:20:31.707Z,990.52
2023-03-10T05:21:31.873Z,990.44
2023-03-10T05:22:32.063Z,990.43
2023-03-10T05:23:32.239Z,990.43
2023-03-10T05:24:32.442Z,990.39
2023-03-10T05:25:32.612Z,990.37
2023-03-10T05:26:34.787Z,990.37
2023-03-10T05:27:32.932Z,990.33
2023-03-10T05:28:33.105Z,990.39
2023-03-10T05:29:33.272Z,990.34
2023-03-10T05:30:33.440Z,990.27
2023-03-10T05:31:33.639Z,990.28
2023-03-10T05:32:33.819Z,990.26
2023-03-10T05:33:33.974Z,990.25
2023-03-10T05:34:34.136Z,990.28
2023-03-10T05:35:34.361Z,990.25
2023-03-10T05:36:34.483Z,990.26
2023-03-10T05:37:34.644Z,990.23
2023-03-10T05:38:34.843Z,990.26
2023-03-10T05:39:35.028Z,990.26
2023-03-10T05:40:35.191Z,990.29
2023-03-10T05:41:35.351Z,990.24
2023-03-10T05:42:35.540Z,990.22
2023-03-10T05:43:35.702Z,990.17
2023-03-10T05:44:35.883Z,990.24
2023-03-10T05:45:36.026Z,990.24
2023-03-10T05:46:36.258Z,990.27
2023-03-10T05:47:36.371Z,990.23
2023-03-10T05:48:36.568Z,990.16
2023-03-10T05:49:38.725Z,990.16
2023-03-10T05:50:36.925Z,990.18
2023-03-10T05:51:37.080Z,990.24
2023-03-10T05:52:37.259Z,990.20
2023-03-10T05:53:37.440Z,990.21
2023-03-10T05:54:37.649Z,990.19
2023-03-10T05:55:37.793Z,990.23
2023-03-10T05:56:37.995Z,990.21
2023-03-10T05:57:38.138Z,990.16
2023-03-10T05:58:38.340Z,990.08
2023-03-10T05:59:38.508Z,990.09
2023-03-10T06:00:38.666Z,990.08
2023-03-10T06:01:38.849Z,990.04
2023-03-10T06:02:39.057Z,990.04
2023-03-10T06:03:39.293Z,990.09
2023-03-10T06:04:39.409Z,990.10
2023-03-10T06:05:39.550Z,990.07
2023-03-10T06:06:39.756Z,990.08
2023-03-10T06:07:39.908Z,990.07
2023-03-10T06:08:40.093Z,990.01
2023-03-10T06:09:40.268Z,990.00
2023-03-10T06:10:40.467Z,990.06
2023-03-10T06:11:40.666Z,990.04
2023-03-10T06:12:40.818Z,990.01
2023-03-10T06:13:41.012Z,990.07
2023-03-10T06:14:41.214Z,989.99
2023-03-10T06:15:41.355Z,989.96
2023-03-10T06:16:41.575Z,989.97
2023-03-10T06:17:41.717Z,989.99
2023-03-10T06:18:41.900Z,989.98
2023-03-10T06:19:42.107Z,989.94
2023-03-10T06:20:42.256Z,989.92
2023-03-10T06:21:42.434Z,989.97
2023-03-10T06:22:42.587Z,989.94
2023-03-10T06:23:42.768Z,989.93
2023-03-10T06:24:42.974Z,989.90
2023-03-10T06:25:43.167Z,989.95
2023-03-10T06:26:43.341Z,989.92
2023-03-10T06:27:43.508Z,989.91
2023-03-10T06:28:43.686Z,989.92
2023-03-10T06:29:43.832Z,989.87
2023-03-10T06:30:44.020Z,989.89
2023-03-10T06:31:44.263Z,989.81
2023-03-10T06:32:44.409Z,989.86
2023-03-10T06:33:44.554Z,989.87
2023-03-10T06:34:44.744Z,989.85
2023-03-10T06:35:44.947Z,989.84
2023-03-10T06:36:45.089Z,989.87
2023-03-10T06:37:45.262Z,989.78
2023-03-10T06:38:45.453Z,989.82
2023-03-10T06:39:45.661Z,989.72
2023-03-10T06:40:45.809Z,989.75
2023-03-10T06:41:45.997Z,989.75
2023-03-10T06:42:46.199Z,989.74
2023-03-10T06:43:46.375Z,989.78
2023-03-10T06:44:49.110Z,989.81
2023-03-10T06:45:46.800Z,989.77
2023-03-10T06:46:46.880Z,989.77
2023-03-10T06:47:47.268Z,989.72
2023-03-10T06:48:47.176Z,989.80
2023-03-10T06:49:47.376Z,989.79
2023-03-10T06:50:47.540Z,989.78
2023-03-10T06:51:47.691Z,989.84
2023-03-10T06:52:47.885Z,989.80
2023-03-10T06:53:48.074Z,989.76
2023-03-10T06:54:48.268Z,989.78
2023-03-10T06:55:48.420Z,989.79
2023-03-10T06:56:48.578Z,989.75
2023-03-10T06:57:48.758Z,989.89
2023-03-10T06:58:48.920Z,989.82
2023-03-10T06:59:49.110Z,989.79
2023-03-10T07:00:49.331Z,989.84
2023-03-10T07:01:49.450Z,989.82
2023-03-10T07:02:49.608Z,989.78
2023-03-10T07:03:49.801Z,989.81
2023-03-10T07:04:50.053Z,989.80
2023-03-10T07:05:50.136Z,989.85
2023-03-10T07:06:50.312Z,989.81
2023-03-10T07:07:50.498Z,989.82
2023-03-10T07:08:50.664Z,989.79
2023-03-10T07:09:50.836Z,989.85
2023-03-10T07:10:51.812Z,989.79
2023-03-10T07:11:51.194Z,989.79
2023-03-10T07:12:51.343Z,989.74
2023-03-10T07:13:51.528Z,989.76
2023-03-10T07:14:51.713Z,989.74
2023-03-10T07:15:51.886Z,989.73
2023-03-10T07:16:52.165Z,989.77
2023-03-10T07:17:52.235Z,989.78
2023-03-10T07:18:52.381Z,989.77
2023-03-10T07:19:52.571Z,989.80
2023-03-10T07:20:52.746Z,989.76
2023-03-10T07:21:52.914Z,989.74
2023-03-10T07:22:53.073Z,989.75
2023-03-10T07:23:53.252Z,989.76
2023-03-10T07:24:53.444Z,989.75
2023-03-10T07:25:53.619Z,989.76
2023-03-10T07:26:53.781Z,989.72
2023-03-10T07:27:53.948Z,989.75
2023-03-10T07:28:54.120Z,989.79
2023-03-10T07:29:54.299Z,989.77
2023-03-10T07:30:54.506Z,989.76
2023-03-10T07:31:54.636Z,989.75
2023-03-10T07:32:54.879Z,989.73
2023-03-10T07:33:54.969Z,989.79
2023-03-10T07:34:55.169Z,989.79
2023-03-10T07:35:55.339Z,989.76
2023-03-10T07:36:55.502Z,989.79
2023-03-10T07:37:55.681Z,989.80
2023-03-10T07:38:55.837Z,989.79
2023-03-10T07:39:56.055Z,989.76
2023-03-10T07:40:56.218Z,989.77
2023-03-10T07:41:56.407Z,989.73
2023-03-10T07:42:56.565Z,989.73
2023-03-10T07:43:56.761Z,989.71
2023-03-10T07:44:57.016Z,989.73
2023-03-10T07:45:57.128Z,989.71
2023-03-10T07:46:57.276Z,989.71
2023-03-10T07:47:57.458Z,989.73
2023-03-10T07:48:57.630Z,989.76
2023-03-10T07:49:57.789Z,989.69
2023-03-10T07:50:57.921Z,989.69
2023-03-10T07:51:58.091Z,989.67
2023-03-10T07:52:58.267Z,989.69
2023-03-10T07:53:58.429Z,989.66
2023-03-10T07:54:58.712Z,989.65
2023-03-10T07:55:58.799Z,989.65
2023-03-10T07:56:58.978Z,989.70
2023-03-10T07:57:59.122Z,989.59
2023-03-10T07:58:59.297Z,989.59
2023-03-10T07:59:59.540Z,989.60
2023-03-10T08:00:59.642Z,989.62
2023-03-10T08:01:59.812Z,989.58
2023-03-10T08:02:59.986Z,989.54
2023-03-10T08:04:00.309Z,989.54
2023-03-10T08:05:00.512Z,989.57
2023-03-10T08:06:00.514Z,989.56
2023-03-10T08:07:00.680Z,989.54
2023-03-10T08:08:00.883Z,989.53
2023-03-10T08:09:01.038Z,989.50
2023-03-10T08:10:01.246Z,989.51
2023-03-10T08:11:01.421Z,989.50
2023-03-10T08:12:01.588Z,989.53
2023-03-10T08:13:01.767Z,989.55
2023-03-10T08:14:02.032Z,989.55
2023-03-10T08:15:02.146Z,989.55
2023-03-10T08:16:02.332Z,989.50
2023-03-10T08:17:02.490Z,989.55
2023-03-10T08:18:02.612Z,989.54
2023-03-10T08:19:02.788Z,989.54
2023-03-10T08:20:02.975Z,989.55
2023-03-10T08:21:03.104Z,989.53
2023-03-10T08:22:03.287Z,989.50
2023-03-10T08:23:03.458Z,989.50
2023-03-10T08:24:03.635Z,989.48
2023-03-10T08:25:03.806Z,989.50
2023-03-10T08:26:03.994Z,989.53
2023-03-10T08:27:04.167Z,989.52
2023-03-10T08:28:04.344Z,989.54
2023-03-10T08:29:04.527Z,989.50
2023-03-10T08:30:04.718Z,989.55
2023-03-10T08:31:05.622Z,989.51
2023-03-10T08:32:05.123Z,989.56
2023-03-10T08:33:05.337Z,989.51
2023-03-10T08:34:05.428Z,989.54
2023-03-10T08:35:05.636Z,989.57
2023-03-10T08:36:05.835Z,989.56
2023-03-10T08:37:05.969Z,989.57
2023-03-10T08:38:06.197Z,989.51
2023-03-10T08:39:06.331Z,989.53
2023-03-10T08:40:06.536Z,989.50
2023-03-10T08:41:06.685Z,989.53
2023-03-10T08:42:06.869Z,989.56
2023-03-10T08:43:07.062Z,989.45
2023-03-10T08:44:07.252Z,989.49
2023-03-10T08:45:08.722Z,989.47
2023-03-10T08:46:08.872Z,989.46
2023-03-10T08:47:07.795Z,989.51
2023-03-10T08:48:07.879Z,989.44
2023-03-10T08:49:08.059Z,989.43
2023-03-10T08:50:08.266Z,989.44
2023-03-10T08:51:08.399Z,989.40
2023-03-10T08:52:08.596Z,989.44
2023-03-10T08:53:08.738Z,989.45
2023-03-10T08:54:08.930Z,989.45
2023-03-10T08:55:09.109Z,989.51
2023-03-10T08:56:09.258Z,989.47
2023-03-10T08:57:09.408Z,989.46
2023-03-10T08:58:09.577Z,989.51
2023-03-10T08:59:09.776Z,989.58
2023-03-10T09:00:09.928Z,989.60
2023-03-10T09:01:10.103Z,989.63
2023-03-10T09:02:10.397Z,989.66
2023-03-10T09:03:10.489Z,989.64
2023-03-10T09:04:10.645Z,989.62
2023-03-10T09:05:10.834Z,989.64
2023-03-10T09:06:10.991Z,989.64
2023-03-10T09:07:11.162Z,989.65
2023-03-10T09:08:11.350Z,989.69
2023-03-10T09:09:11.511Z,989.69
2023-03-10T09:10:11.718Z,989.70
2023-03-10T09:11:11.888Z,989.70
2023-03-10T09:12:12.060Z,989.72
2023-03-10T09:13:14.376Z,989.72
2023-03-10T09:14:12.714Z,989.71
2023-03-10T09:15:12.581Z,989.72
2023-03-10T09:16:12.838Z,989.74
2023-03-10T09:17:12.930Z,989.74
2023-03-10T09:18:13.165Z,989.73
2023-03-10T09:19:13.270Z,989.74
2023-03-10T09:20:13.470Z,989.82
2023-03-10T09:21:13.628Z,989.82
2023-03-10T09:22:13.839Z,989.83
2023-03-10T09:23:14.000Z,989.81
2023-03-10T09:24:14.172Z,989.85
2023-03-10T09:25:14.360Z,989.85
2023-03-10T09:26:14.538Z,989.82
2023-03-10T09:27:14.709Z,989.85
2023-03-10T09:28:17.401Z,989.85
2023-03-10T09:29:15.109Z,989.84
2023-03-10T09:30:15.246Z,989.86
2023-03-10T09:31:15.448Z,989.86
2023-03-10T09:32:15.884Z,989.91
2023-03-10T09:33:15.783Z,989.91
2023-03-10T09:34:15.951Z,989.92
2023-03-10T09:35:16.154Z,989.86
2023-03-10T09:36:16.442Z,989.89
2023-03-10T09:37:16.478Z,989.93
2023-03-10T09:38:16.663Z,989.92
2023-03-10T09:39:16.797Z,989.98
2023-03-10T09:40:16.973Z,989.99
2023-03-10T09:41:17.136Z,990.03
2023-03-10T09:42:25.538Z,990.02
2023-03-10T09:43:18.479Z,990.04
2023-03-10T09:44:17.667Z,990.02
2023-03-10T09:45:17.841Z,990.04
2023-03-10T09:46:18.107Z,990.02
2023-03-10T09:47:20.060Z,990.07
2023-03-10T09:48:18.369Z,990.11
2023-03-10T09:49:18.551Z,990.10
2023-03-10T09:50:18.739Z,990.11
2023-03-10T09:51:18.892Z,990.09
2023-03-10T09:52:19.080Z,990.13
2023-03-10T09:53:19.248Z,990.15
2023-03-10T09:54:19.401Z,990.15
2023-03-10T09:55:19.603Z,990.18
2023-03-10T09:56:19.771Z,990.19
2023-03-10T09:57:19.930Z,990.22
2023-03-10T09:58:20.120Z,990.22
2023-03-10T09:59:20.313Z,990.23
2023-03-10T10:00:20.493Z,990.25
2023-03-10T10:01:20.652Z,990.22
2023-03-10T10:02:20.813Z,990.24
2023-03-10T10:03:21.055Z,990.30
2023-03-10T10:04:21.364Z,990.31
2023-03-10T10:05:21.372Z,990.30
2023-03-10T10:06:21.518Z,990.31
2023-03-10T10:07:21.702Z,990.30
2023-03-10T10:08:21.892Z,990.33
2023-03-10T10:09:22.061Z,990.32
2023-03-10T10:10:22.240Z,990.29
2023-03-10T10:11:22.407Z,990.33
2023-03-10T10:12:22.569Z,990.33
2023-03-10T10:13:22.750Z,990.38
2023-03-10T10:14:31.466Z,990.38
2023-03-10T10:15:24.118Z,990.39
2023-03-10T10:16:33.961Z,990.40
2023-03-10T10:17:24.529Z,990.45
2023-03-10T10:18:25.728Z,990.45
2023-03-10T10:19:23.828Z,990.49
2023-03-10T10:20:24.012Z,990.47
2023-03-10T10:21:28.109Z,990.45
2023-03-10T10:22:25.324Z,990.47
2023-03-10T10:23:24.467Z,990.49
2023-03-10T10:24:24.662Z,990.50
2023-03-10T10:25:24.849Z,990.48
2023-03-10T10:26:25.010Z,990.51
2023-03-10T10:27:25.582Z,990.50
2023-03-10T10:28:25.350Z,990.45
2023-03-10T10:29:25.522Z,990.52
2023-03-10T10:30:27.039Z,990.56
2023-03-10T10:31:25.987Z,990.56
2023-03-10T10:32:26.081Z,990.57
2023-03-10T10:33:26.204Z,990.57
2023-03-10T10:34:26.378Z,990.58
2023-03-10T10:35:26.548Z,990.58
2023-03-10T10:36:26.780Z,990.53
2023-03-10T10:37:26.895Z,990.56
2023-03-10T10:38:27.077Z,990.56
2023-03-10T10:39:28.227Z,990.54
2023-03-10T10:40:27.441Z,990.59
2023-03-10T10:41:27.641Z,990.61
2023-03-10T10:42:27.839Z,990.59
2023-03-10T10:43:27.986Z,990.63
2023-03-10T10:44:28.150Z,990.68
2023-03-10T10:45:28.356Z,990.67
2023-03-10T10:46:28.549Z,990.68
2023-03-10T10:47:28.681Z,990.67
2023-03-10T10:48:28.851Z,990.71
2023-03-10T10:49:29.037Z,990.77
2023-03-10T10:50:29.229Z,990.71
2023-03-10T10:51:29.467Z,990.66
2023-03-10T10:52:29.543Z,990.66
2023-03-10T10:53:29.712Z,990.70
2023-03-10T10:54:29.876Z,990.73
2023-03-10T10:55:30.065Z,990.74
2023-03-10T10:56:30.392Z,990.73
2023-03-10T10:57:30.395Z,990.75
2023-03-10T10:58:30.616Z,990.78
2023-03-10T10:59:30.752Z,990.77
2023-03-10T11:00:30.971Z,990.79
2023-03-10T11:01:31.122Z,990.80
2023-03-10T11:02:31.308Z,990.77
2023-03-10T11:03:33.274Z,990.80
2023-03-10T11:04:31.624Z,990.78
2023-03-10T11:05:31.772Z,990.81
2023-03-10T11:06:31.961Z,990.81
2023-03-10T11:07:32.228Z,990.82
2023-03-10T11:08:32.296Z,990.77
2023-03-10T11:09:32.465Z,990.73
2023-03-10T11:10:32.639Z,990.71
2023-03-10T11:11:32.842Z,990.67
2023-03-10T11:12:32.972Z,990.73
2023-03-10T11:13:33.173Z,990.69
2023-03-10T11:14:33.364Z,990.69
2023-03-10T11:15:33.537Z,990.69
2023-03-10T11:16:33.724Z,990.70
2023-03-10T11:17:33.899Z,990.76
2023-03-10T11:18:34.100Z,990.81
2023-03-10T11:19:34.253Z,990.75
2023-03-10T11:20:34.423Z,990.77
2023-03-10T11:21:34.624Z,990.80
2023-03-10T11:22:34.784Z,990.84
2023-03-10T11:23:34.960Z,990.84
2023-03-10T11:24:35.125Z,990.91
2023-03-10T11:25:35.283Z,990.89
2023-03-10T11:26:35.474Z,990.91
2023-03-10T11:27:35.624Z,990.89
2023-03-10T11:28:35.820Z,990.89
2023-03-10T11:29:36.093Z,990.81
2023-03-10T11:30:36.167Z,990.82
2023-03-10T11:31:36.472Z,990.83
2023-03-10T11:32:36.574Z,990.86
2023-03-10T11:33:36.734Z,990.82
2023-03-10T11:34:36.893Z,990.79
2023-03-10T11:35:37.255Z,990.79
2023-03-10T11:36:49.617Z,990.77
2023-03-10T11:37:38.445Z,990.81
2023-03-10T11:38:37.638Z,990.80
2023-03-10T11:39:37.789Z,990.75
2023-03-10T11:40:38.013Z,990.82
2023-03-10T11:41:38.181Z,990.80
2023-03-10T11:42:38.355Z,990.76
2023-03-10T11:43:38.514Z,990.80
2023-03-10T11:44:38.702Z,990.81
2023-03-10T11:45:38.890Z,990.81
2023-03-10T11:46:39.219Z,990.78
2023-03-10T11:47:41.819Z,990.81
2023-03-10T11:48:39.385Z,990.75
2023-03-10T11:49:39.551Z,990.80
2023-03-10T11:50:39.741Z,990.75
2023-03-10T11:51:39.939Z,990.76
2023-03-10T11:52:40.084Z,990.73
2023-03-10T11:53:40.253Z,990.74
2023-03-10T11:54:40.437Z,990.79
2023-03-10T11:55:40.615Z,990.76
2023-03-10T11:56:40.794Z,990.77
2023-03-10T11:57:40.950Z,990.79
2023-03-10T11:58:41.119Z,990.77
2023-03-10T11:59:41.302Z,990.80
2023-03-10T12:00:41.572Z,990.81
2023-03-10T12:01:41.695Z,990.73
2023-03-10T12:02:41.864Z,990.73
2023-03-10T12:03:42.140Z,990.78
2023-03-10T12:04:42.233Z,990.77
2023-03-10T12:05:42.419Z,990.80
2023-03-10T12:06:42.595Z,990.80
2023-03-10T12:07:42.776Z,990.77
2023-03-10T12:08:42.916Z,990.76
2023-03-10T12:09:43.086Z,990.81
2023-03-10T12:10:43.240Z,990.76
2023-03-10T12:11:43.415Z,990.72
2023-03-10T12:12:43.582Z,990.77
2023-03-10T12:13:43.785Z,990.77
2023-03-10T12:14:43.988Z,990.79
2023-03-10T12:15:44.166Z,990.81
2023-03-10T12:16:44.343Z,990.88
2023-03-10T12:17:44.529Z,990.94
2023-03-10T12:18:44.725Z,990.94
2023-03-10T12:19:44.853Z,990.91
2023-03-10T12:20:45.063Z,990.86
2023-03-10T12:21:45.255Z,990.89
2023-03-10T12:22:45.404Z,990.81
2023-03-10T12:23:45.614Z,990.77
2023-03-10T12:24:45.756Z,990.81
2023-03-10T12:25:45.964Z,990.80
2023-03-10T12:26:46.108Z,990.76
2023-03-10T12:27:46.274Z,990.71
2023-03-10T12:28:46.468Z,990.71
2023-03-10T12:29:46.641Z,990.68
2023-03-10T12:30:46.875Z,990.68